Time;durP1;ratioP1;P1;durP2;ratioP2;P2;SDS_P1;SDS_P2;PMS_P1;PMS_P2;Temp;Humidity;BMP_temperature;BMP_pressure;BME280_temperature;BME280_humidity;BME280_pressure;Samples;Min_cycle;Max_cycle;Signal;HPM_P1;HPM_P2
2023/03/14 00:00:48;;;;;;;44.20;18.20;;;7.90;59.10;;;;;;5052577;28;20025;-78
2023/03/14 00:03:14;;;;;;;39.00;17.25;;;7.90;60.40;;;;;;5052648;28;20029;-78
2023/03/14 00:05:39;;;;;;;48.35;21.13;;;7.80;59.30;;;;;;5052733;28;20359;-77
2023/03/14 00:08:05;;;;;;;47.20;20.20;;;7.80;59.20;;;;;;5052644;28;20053;-78
2023/03/14 00:10:31;;;;;;;48.67;19.70;;;7.80;59.40;;;;;;5052576;28;20448;-79
2023/03/14 00:12:56;;;;;;;47.30;18.13;;;7.80;59.40;;;;;;5051060;28;20167;-80
2023/03/14 00:15:22;;;;;;;46.78;18.75;;;7.80;59.20;;;;;;5052389;28;20049;-79
2023/03/14 00:17:48;;;;;;;39.95;17.20;;;7.90;59.20;;;;;;5052063;28;20036;-78
2023/03/14 00:20:14;;;;;;;49.92;19.15;;;7.80;59.40;;;;;;5054277;28;20027;-77
2023/03/14 00:22:41;;;;;;;44.15;16.95;;;7.80;59.50;;;;;;5055831;28;20037;-77
2023/03/14 00:25:09;;;;;;;37.08;16.25;;;7.80;59.10;;;;;;5055786;28;20035;-77
2023/03/14 00:27:36;;;;;;;45.38;19.05;;;7.80;59.10;;;;;;5055975;28;20348;-78
2023/03/14 00:30:03;;;;;;;43.90;17.83;;;7.80;59.50;;;;;;5055898;28;20024;-78
2023/03/14 00:32:29;;;;;;;45.58;19.35;;;7.80;59.00;;;;;;5055805;28;20505;-78
2023/03/14 00:34:55;;;;;;;45.65;19.67;;;7.80;58.80;;;;;;5055980;28;20025;-78
2023/03/14 00:37:20;;;;;;;59.28;21.25;;;7.80;58.70;;;;;;5055421;28;20037;-78
2023/03/14 00:39:46;;;;;;;45.55;19.95;;;7.80;58.60;;;;;;5054703;28;20029;-77
2023/03/14 00:42:12;;;;;;;49.83;20.48;;;7.80;58.30;;;;;;5055885;28;20087;-78
2023/03/14 00:44:37;;;;;;;43.67;17.27;;;7.80;58.60;;;;;;5055871;28;20020;-77
2023/03/14 00:47:03;;;;;;;39.65;17.20;;;7.80;58.50;;;;;;5055569;28;20037;-78
2023/03/14 00:49:29;;;;;;;46.88;18.95;;;7.80;59.10;;;;;;5055819;28;20044;-80
2023/03/14 00:51:54;;;;;;;51.50;21.45;;;7.70;59.60;;;;;;5055327;28;20115;-77
2023/03/14 00:54:21;;;;;;;47.60;19.33;;;7.60;60.10;;;;;;5054477;28;20033;-79
2023/03/14 00:56:47;;;;;;;53.03;21.42;;;7.60;59.90;;;;;;5054585;28;20025;-77
2023/03/14 00:59:12;;;;;;;63.28;24.15;;;7.60;59.80;;;;;;5055600;28;20032;-78
2023/03/14 01:01:39;;;;;;;57.30;23.05;;;7.50;59.90;;;;;;5055420;28;20370;-78
2023/03/14 01:04:05;;;;;;;51.00;20.90;;;7.50;60.40;;;;;;5055489;28;20020;-78
2023/03/14 01:06:31;;;;;;;45.00;18.35;;;7.40;60.60;;;;;;5054917;28;20466;-78
2023/03/14 01:08:57;;;;;;;37.88;17.00;;;7.50;60.50;;;;;;5054195;28;20028;-77
2023/03/14 01:11:25;;;;;;;36.70;17.05;;;7.50;60.30;;;;;;5055061;28;20100;-78
2023/03/14 01:13:52;;;;;;;34.25;15.00;;;7.50;60.00;;;;;;5055145;28;20025;-78
2023/03/14 01:16:19;;;;;;;32.65;14.57;;;7.50;60.10;;;;;;5055090;28;20017;-77
2023/03/14 01:18:46;;;;;;;36.20;16.70;;;7.50;60.20;;;;;;5055341;28;20021;-80
2023/03/14 01:21:30;;;;;;;42.28;17.15;;;7.50;59.80;;;;;;5054956;28;20029;-77
2023/03/14 01:23:57;;;;;;;39.28;15.70;;;7.50;60.10;;;;;;5054248;28;20363;-78
2023/03/14 01:26:25;;;;;;;40.78;15.65;;;7.50;60.30;;;;;;5054209;28;20021;-78
2023/03/14 01:28:52;;;;;;;42.00;16.75;;;7.50;60.40;;;;;;5053796;28;20036;-79
2023/03/14 01:31:18;;;;;;;39.92;16.13;;;7.40;60.10;;;;;;5055224;28;20017;-77
2023/03/14 01:33:44;;;;;;;39.13;16.15;;;7.40;60.50;;;;;;5054758;28;20033;-77
2023/03/14 01:36:11;;;;;;;35.88;15.60;;;7.40;61.30;;;;;;5053858;28;20021;-77
2023/03/14 01:38:37;;;;;;;41.55;17.27;;;7.30;61.40;;;;;;5055330;28;20024;-79
2023/03/14 01:41:03;;;;;;;33.85;15.70;;;7.30;61.50;;;;;;5055014;28;20025;-76
2023/03/14 01:43:30;;;;;;;42.83;17.63;;;7.20;61.50;;;;;;5055301;28;20364;-77
2023/03/14 01:46:05;;;;;;;41.15;16.25;;;7.20;61.60;;;;;;5055289;28;20025;-79
2023/03/14 01:48:48;;;;;;;47.58;17.55;;;7.20;62.50;;;;;;5054604;28;20475;-77
2023/03/14 01:51:35;;;;;;;37.92;16.70;;;7.20;61.80;;;;;;5035086;28;20392;-78
2023/03/14 01:54:18;;;;;;;36.65;17.02;;;7.20;61.30;;;;;;5033767;28;20039;-78
2023/03/14 01:56:50;;;;;;;37.30;14.45;;;7.20;61.60;;;;;;5035818;28;20028;-77
2023/03/14 01:59:15;;;;;;;;;;;7.20;61.60;;;;;;5035677;28;20014;-79
2023/03/14 02:01:44;;;;;;;48.22;19.00;;;7.20;61.80;;;;;;5035016;28;20354;-78
2023/03/14 02:04:11;;;;;;;45.08;18.02;;;7.10;61.70;;;;;;5048066;28;20100;-79
2023/03/14 02:07:07;;;;;;;40.25;17.27;;;7.10;61.80;;;;;;5053056;28;20021;-79
2023/03/14 02:09:34;;;;;;;40.88;17.05;;;7.10;62.00;;;;;;5053792;28;20072;-78
2023/03/14 02:12:00;;;;;;;38.92;17.23;;;7.10;62.30;;;;;;5053609;28;20044;-79
2023/03/14 02:14:34;;;;;;;40.55;16.20;;;7.00;63.00;;;;;;5054444;28;20112;-77
2023/03/14 02:17:02;;;;;;;42.38;18.65;;;7.00;63.30;;;;;;5054305;28;20029;-78
2023/03/14 02:19:56;;;;;;;49.35;21.52;;;6.90;63.20;;;;;;5046242;28;20025;-79
2023/03/14 02:22:22;;;;;;;51.53;21.90;;;6.90;64.40;;;;;;5050884;28;20106;-80
2023/03/14 02:25:09;;;;;;;53.42;21.52;;;6.90;64.30;;;;;;5052893;28;20025;-78
2023/03/14 02:27:35;;;;;;;49.72;19.58;;;6.90;64.40;;;;;;5052410;28;20078;-79
2023/03/14 02:30:05;;;;;;;47.20;20.40;;;6.90;65.00;;;;;;5053373;28;20051;-77
2023/03/14 02:32:34;;;;;;;50.28;19.63;;;7.00;65.00;;;;;;5053556;28;20029;-78
2023/03/14 02:35:05;;;;;;;50.58;21.58;;;7.00;65.70;;;;;;5053669;28;20043;-77
2023/03/14 02:37:37;;;;;;;52.92;19.17;;;6.90;64.90;;;;;;5053331;28;20056;-78
2023/03/14 02:40:04;;;;;;;47.75;20.77;;;6.80;64.70;;;;;;5053717;28;20163;-79
2023/03/14 02:42:30;;;;;;;45.75;18.80;;;6.80;64.80;;;;;;5053261;28;20025;-77
2023/03/14 02:45:21;;;;;;;47.72;18.80;;;6.90;65.20;;;;;;5052077;28;20028;-78
2023/03/14 02:47:54;;;;;;;50.33;18.45;;;6.90;65.30;;;;;;5044550;28;20088;-78
2023/03/14 02:50:24;;;;;;;50.88;18.85;;;7.00;64.40;;;;;;5052122;28;20057;-78
2023/03/14 02:52:50;;;;;;;48.13;19.05;;;7.00;64.20;;;;;;5052020;28;20071;-79
2023/03/14 02:55:21;;;;;;;50.92;19.58;;;7.00;64.00;;;;;;5052144;28;20112;-77
2023/03/14 02:57:46;;;;;;;47.38;17.40;;;7.00;64.30;;;;;;5053248;28;20071;-78
2023/03/14 03:00:12;;;;;;;52.13;20.25;;;7.10;64.20;;;;;;5053090;28;20056;-76
2023/03/14 03:02:38;;;;;;;56.47;17.48;;;7.00;64.20;;;;;;5053424;28;20486;-78
2023/03/14 03:05:04;;;;;;;45.85;18.25;;;7.00;64.20;;;;;;5052838;28;20029;-77
2023/03/14 03:07:30;;;;;;;47.83;19.17;;;7.00;63.90;;;;;;5051818;28;20038;-79
2023/03/14 03:09:56;;;;;;;45.78;18.48;;;7.10;64.80;;;;;;5053029;28;20021;-77
2023/03/14 03:12:21;;;;;;;50.05;18.02;;;7.00;64.20;;;;;;5050968;28;20048;-78
2023/03/14 03:14:47;;;;;;;128.55;44.72;;;7.00;64.20;;;;;;5052152;28;20029;-78
2023/03/14 03:17:13;;;;;;;167.60;53.70;;;7.00;64.40;;;;;;5052056;28;20354;-79
2023/03/14 03:19:38;;;;;;;134.55;46.55;;;7.00;64.30;;;;;;5052654;28;20028;-76
2023/03/14 03:22:04;;;;;;;104.45;35.88;;;7.00;66.20;;;;;;5053175;28;20099;-78
2023/03/14 03:24:30;;;;;;;77.32;26.92;;;7.00;66.20;;;;;;5052991;28;20025;-78
2023/03/14 03:26:55;;;;;;;53.65;20.73;;;6.90;66.50;;;;;;5052494;28;20021;-79
2023/03/14 03:29:21;;;;;;;68.97;21.83;;;6.90;66.30;;;;;;5052301;28;20024;-78
2023/03/14 03:31:47;;;;;;;62.72;22.25;;;6.80;66.90;;;;;;5053642;28;20025;-79
2023/03/14 03:34:13;;;;;;;61.13;21.45;;;6.80;66.80;;;;;;5052278;28;20024;-78
2023/03/14 03:36:39;;;;;;;65.15;21.52;;;6.70;66.60;;;;;;5053714;28;20498;-78
2023/03/14 03:39:05;;;;;;;59.80;23.20;;;6.60;67.20;;;;;;5053036;28;20052;-77
2023/03/14 03:41:31;;;;;;;70.65;25.92;;;6.60;68.00;;;;;;5053618;28;20021;-79
2023/03/14 03:43:56;;;;;;;67.05;24.23;;;6.60;67.60;;;;;;5053273;28;20402;-78
2023/03/14 03:46:22;;;;;;;63.38;27.25;;;6.60;68.00;;;;;;5053380;28;20025;-77
2023/03/14 03:48:48;;;;;;;67.60;24.67;;;6.50;68.90;;;;;;5053488;28;20028;-77
2023/03/14 03:51:15;;;;;;;62.53;24.35;;;6.40;68.30;;;;;;5052185;28;20359;-78
2023/03/14 03:53:42;;;;;;;64.43;24.85;;;6.30;69.40;;;;;;5051417;28;20370;-77
2023/03/14 03:56:09;;;;;;;72.82;25.20;;;6.30;70.70;;;;;;5056397;28;20151;-78
2023/03/14 03:58:35;;;;;;;67.90;27.02;;;6.20;71.00;;;;;;5056489;28;20100;-77
2023/03/14 04:01:00;;;;;;;70.93;25.88;;;6.30;70.70;;;;;;5056565;28;20151;-77
2023/03/14 04:03:26;;;;;;;56.85;24.95;;;6.20;71.10;;;;;;5056389;28;20036;-78
2023/03/14 04:06:03;;;;;;;58.45;24.55;;;6.20;70.90;;;;;;5056593;28;20032;-79
2023/03/14 04:08:30;;;;;;;52.38;23.23;;;6.20;71.90;;;;;;5055674;28;20052;-79
2023/03/14 04:11:00;;;;;;;58.70;24.30;;;6.20;71.80;;;;;;5056708;28;20021;-78
2023/03/14 04:13:27;;;;;;;51.00;21.63;;;6.20;72.20;;;;;;5055988;28;20483;-77
2023/03/14 04:15:53;;;;;;;56.80;26.55;;;6.20;72.40;;;;;;5055176;28;20106;-77
2023/03/14 04:18:19;;;;;;;56.72;22.92;;;6.10;72.30;;;;;;5055172;28;20048;-77
2023/03/14 04:20:45;;;;;;;57.40;22.33;;;6.10;73.00;;;;;;5056154;28;20328;-77
2023/03/14 04:23:11;;;;;;;54.72;23.70;;;6.10;73.50;;;;;;5054751;28;20029;-78
2023/03/14 04:25:37;;;;;;;64.00;25.05;;;6.20;73.80;;;;;;5055016;28;20075;-77
2023/03/14 04:28:03;;;;;;;74.72;31.00;;;6.20;73.70;;;;;;5055640;28;20063;-79
2023/03/14 04:30:29;;;;;;;105.20;38.22;;;6.20;73.80;;;;;;5055832;28;20048;-77
2023/03/14 04:32:55;;;;;;;98.75;34.95;;;6.20;72.80;;;;;;5054797;28;20125;-80
2023/03/14 04:35:21;;;;;;;91.03;32.00;;;6.20;73.80;;;;;;5055902;28;20100;-77
2023/03/14 04:37:48;;;;;;;87.10;30.15;;;6.30;73.80;;;;;;5056048;28;20036;-79
2023/03/14 04:40:15;;;;;;;108.13;32.88;;;6.30;73.90;;;;;;5054595;28;20031;-78
2023/03/14 04:42:40;;;;;;;87.53;31.77;;;6.30;74.40;;;;;;5055106;28;20024;-78
2023/03/14 04:45:07;;;;;;;82.32;31.20;;;6.40;75.70;;;;;;5055831;28;20414;-78
2023/03/14 04:47:33;;;;;;;86.40;31.98;;;6.40;75.00;;;;;;5054497;28;20025;-78
2023/03/14 04:49:59;;;;;;;99.82;36.00;;;6.40;75.70;;;;;;5055464;28;20038;-78
2023/03/14 04:52:25;;;;;;;105.38;36.03;;;6.50;76.00;;;;;;5054960;28;20041;-79
2023/03/14 04:54:51;;;;;;;103.82;36.75;;;6.50;76.70;;;;;;5054342;28;20025;-78
2023/03/14 04:57:17;;;;;;;94.93;35.55;;;6.50;76.60;;;;;;5054828;28;20040;-79
2023/03/14 04:59:43;;;;;;;109.13;39.47;;;6.50;76.60;;;;;;5055300;28;20047;-78
2023/03/14 05:02:08;;;;;;;111.78;41.88;;;6.50;77.40;;;;;;5054292;28;20125;-77
2023/03/14 05:04:34;;;;;;;112.00;41.17;;;6.50;77.80;;;;;;5055124;28;20029;-78
2023/03/14 05:07:00;;;;;;;91.57;40.22;;;6.40;78.10;;;;;;5054847;28;20032;-77
2023/03/14 05:09:26;;;;;;;104.38;41.28;;;6.50;79.10;;;;;;5056009;28;20083;-80
2023/03/14 05:11:52;;;;;;;110.18;43.70;;;6.40;79.20;;;;;;5054615;28;20049;-79
2023/03/14 05:14:18;;;;;;;94.82;38.03;;;6.40;78.10;;;;;;5054925;28;20029;-76
2023/03/14 05:16:43;;;;;;;80.50;30.73;;;6.50;77.80;;;;;;5054072;28;20029;-80
2023/03/14 05:19:10;;;;;;;75.65;27.33;;;6.50;77.30;;;;;;5053805;28;20025;-77
2023/03/14 05:21:36;;;;;;;61.20;25.67;;;6.60;76.00;;;;;;5054825;28;20407;-80
2023/03/14 05:24:02;;;;;;;65.70;26.00;;;6.60;75.40;;;;;;5054770;28;20104;-79
2023/03/14 05:26:28;;;;;;;55.17;23.85;;;6.60;74.20;;;;;;5054760;28;20017;-79
2023/03/14 05:28:54;;;;;;;47.92;20.17;;;6.70;74.00;;;;;;5055268;28;20475;-77
2023/03/14 05:31:20;;;;;;;49.88;20.67;;;6.80;73.30;;;;;;5053992;28;20359;-78
2023/03/14 05:33:46;;;;;;;46.70;19.13;;;6.80;73.00;;;;;;5055416;28;20051;-79
2023/03/14 05:36:11;;;;;;;44.38;21.05;;;6.80;71.80;;;;;;5055458;28;20021;-79
2023/03/14 05:38:37;;;;;;;58.90;22.25;;;6.80;72.70;;;;;;5054916;28;20359;-77
2023/03/14 05:41:03;;;;;;;49.00;22.45;;;6.90;72.50;;;;;;5055149;28;20456;-78
2023/03/14 05:43:29;;;;;;;50.15;23.10;;;6.90;71.90;;;;;;5055427;28;20032;-78
2023/03/14 05:45:54;;;;;;;55.30;23.25;;;6.90;72.00;;;;;;5054913;28;20031;-76
2023/03/14 05:48:21;;;;;;;61.53;24.75;;;7.00;71.70;;;;;;5055479;28;20033;-78
2023/03/14 05:50:47;;;;;;;66.70;28.65;;;7.00;72.10;;;;;;5055183;28;20058;-77
2023/03/14 05:53:13;;;;;;;88.15;35.92;;;7.00;72.70;;;;;;5054886;28;20029;-78
2023/03/14 05:55:40;;;;;;;76.05;32.65;;;7.00;72.50;;;;;;5054893;28;20025;-78
2023/03/14 05:58:06;;;;;;;87.82;33.28;;;7.00;72.00;;;;;;5053188;28;20112;-78
2023/03/14 06:00:31;;;;;;;72.15;31.27;;;7.00;72.50;;;;;;5054227;28;20162;-77
2023/03/14 06:02:57;;;;;;;78.93;32.25;;;7.10;72.70;;;;;;5054421;28;20107;-77
2023/03/14 06:05:23;;;;;;;74.60;33.00;;;7.10;72.60;;;;;;5052961;28;20355;-79
2023/03/14 06:07:48;;;;;;;71.00;34.30;;;7.20;72.40;;;;;;5053838;28;20067;-78
2023/03/14 06:10:14;;;;;;;72.22;30.70;;;7.20;72.70;;;;;;5053793;28;20031;-78
2023/03/14 06:12:40;;;;;;;64.15;28.17;;;7.30;72.50;;;;;;5053963;28;20044;-78
2023/03/14 06:15:06;;;;;;;61.83;27.00;;;7.30;72.80;;;;;;5054114;28;20406;-77
2023/03/14 06:17:32;;;;;;;65.78;26.67;;;7.30;72.40;;;;;;5053023;28;20031;-78
2023/03/14 06:19:58;;;;;;;60.50;26.27;;;7.40;72.70;;;;;;5053706;28;20017;-79
2023/03/14 06:22:24;;;;;;;54.28;21.88;;;7.50;72.20;;;;;;5052774;28;20025;-78
2023/03/14 06:24:49;;;;;;;80.72;27.35;;;7.50;71.90;;;;;;5053980;28;20029;-78
2023/03/14 06:27:15;;;;;;;73.97;27.65;;;7.70;72.60;;;;;;5053527;28;20021;-78
2023/03/14 06:29:41;;;;;;;58.30;23.90;;;7.70;71.60;;;;;;5053658;28;20063;-77
2023/03/14 06:32:06;;;;;;;52.67;22.60;;;7.80;71.10;;;;;;5053578;28;20025;-80
2023/03/14 06:34:32;;;;;;;50.08;18.73;;;7.90;72.30;;;;;;5051985;28;20523;-79
2023/03/14 06:36:58;;;;;;;43.92;19.67;;;8.00;71.20;;;;;;5053837;28;20025;-78
2023/03/14 06:39:23;;;;;;;57.58;24.92;;;8.10;71.50;;;;;;5053890;28;20423;-79
2023/03/14 06:41:49;;;;;;;74.72;31.15;;;8.20;71.50;;;;;;5052857;28;20016;-78
2023/03/14 06:44:15;;;;;;;87.30;35.95;;;8.20;71.70;;;;;;5053412;28;20092;-78
2023/03/14 06:46:41;;;;;;;93.68;40.53;;;8.20;70.90;;;;;;5053804;28;20040;-78
2023/03/14 06:49:06;;;;;;;82.28;37.42;;;8.30;70.30;;;;;;5052784;28;20020;-77
2023/03/14 06:51:32;;;;;;;73.75;30.30;;;8.40;70.80;;;;;;5051186;28;20035;-78
2023/03/14 06:53:58;;;;;;;59.33;27.27;;;8.50;70.10;;;;;;5053278;28;20082;-78
2023/03/14 06:56:24;;;;;;;70.00;28.25;;;8.60;69.90;;;;;;5053337;28;20406;-78
2023/03/14 06:58:49;;;;;;;62.35;26.58;;;8.70;69.50;;;;;;5052943;28;20021;-78
2023/03/14 07:01:29;;;;;;;60.05;31.13;;;8.80;69.00;;;;;;5053450;28;20059;-77
2023/03/14 07:03:55;;;;;;;56.55;24.17;;;8.90;68.60;;;;;;5053145;28;20025;-78
2023/03/14 07:06:22;;;;;;;61.47;22.88;;;9.00;69.30;;;;;;5053172;28;20064;-78
2023/03/14 07:08:48;;;;;;;62.25;25.23;;;9.10;69.60;;;;;;5052443;28;20052;-78
2023/03/14 07:11:13;;;;;;;52.10;24.77;;;9.20;69.50;;;;;;5052647;28;20013;-78
2023/03/14 07:13:39;;;;;;;71.97;30.73;;;9.20;68.30;;;;;;5053159;28;20036;-78
2023/03/14 07:16:06;;;;;;;59.78;25.20;;;9.30;69.70;;;;;;5052871;28;20032;-77
2023/03/14 07:18:32;;;;;;;63.05;27.17;;;9.30;68.00;;;;;;5053160;28;20021;-78
2023/03/14 07:20:58;;;;;;;60.35;27.02;;;9.40;68.50;;;;;;5053095;28;20020;-77
2023/03/14 07:23:24;;;;;;;55.47;28.88;;;9.50;68.70;;;;;;5051611;28;20451;-79
2023/03/14 07:25:50;;;;;;;53.17;23.40;;;9.60;69.10;;;;;;5053086;28;20021;-78
2023/03/14 07:28:16;;;;;;;64.75;31.08;;;9.60;68.10;;;;;;5053447;28;20013;-78
2023/03/14 07:30:42;;;;;;;53.97;25.48;;;9.70;69.00;;;;;;5055945;28;20429;-79
2023/03/14 07:33:08;;;;;;;54.42;22.38;;;9.80;67.80;;;;;;5057677;28;20514;-78
2023/03/14 07:35:34;;;;;;;55.05;21.48;;;9.80;67.40;;;;;;5056956;28;20164;-79
2023/03/14 07:37:59;;;;;;;46.38;21.30;;;9.90;67.80;;;;;;5057376;28;20028;-78
2023/03/14 07:40:25;;;;;;;42.38;19.30;;;10.00;68.30;;;;;;5057513;28;20075;-78
2023/03/14 07:42:54;;;;;;;45.00;20.10;;;10.00;67.80;;;;;;5057687;28;20057;-79
2023/03/14 07:45:20;;;;;;;41.28;19.65;;;10.10;66.20;;;;;;5055954;28;20017;-79
2023/03/14 07:47:59;;;;;;;49.65;21.40;;;10.20;67.40;;;;;;5057276;28;20358;-88
2023/03/14 07:50:25;;;;;;;50.30;20.92;;;10.30;66.50;;;;;;5056584;28;20025;-78
2023/03/14 07:52:51;;;;;;;48.53;22.08;;;10.40;65.20;;;;;;5055845;28;20039;-78
2023/03/14 07:55:17;;;;;;;48.22;21.60;;;10.50;65.30;;;;;;5056088;28;20021;-78
2023/03/14 07:57:43;;;;;;;53.13;22.27;;;10.70;65.90;;;;;;5057281;28;20047;-79
2023/03/14 08:00:10;;;;;;;46.83;22.60;;;10.80;65.40;;;;;;5057363;28;20355;-78
2023/03/14 08:02:36;;;;;;;46.75;21.88;;;10.90;64.90;;;;;;5057251;28;20020;-78
2023/03/14 08:05:03;;;;;;;52.20;21.38;;;11.00;63.70;;;;;;5056813;28;20345;-79
2023/03/14 08:07:29;;;;;;;50.47;22.27;;;11.20;64.00;;;;;;5055486;28;20511;-79
2023/03/14 08:09:55;;;;;;;40.10;19.77;;;11.40;63.70;;;;;;5055763;28;20111;-80
2023/03/14 08:12:21;;;;;;;48.00;19.27;;;11.50;62.60;;;;;;5055148;28;20049;-78
2023/03/14 08:14:46;;;;;;;45.05;18.13;;;11.70;63.10;;;;;;5057065;28;20025;-77
2023/03/14 08:17:12;;;;;;;34.28;16.45;;;12.00;61.90;;;;;;5056717;28;20021;-77
2023/03/14 08:19:38;;;;;;;67.45;27.73;;;12.10;61.50;;;;;;5056952;28;20443;-79
2023/03/14 08:22:04;;;;;;;62.05;31.60;;;12.30;61.30;;;;;;5057083;28;20017;-79
2023/03/14 08:24:30;;;;;;;134.15;73.50;;;12.30;60.10;;;;;;5071145;28;20025;-81
2023/03/14 08:26:56;;;;;;;67.20;38.95;;;12.30;60.20;;;;;;5075220;28;20048;-77
2023/03/14 08:29:22;;;;;;;47.90;20.27;;;12.40;60.00;;;;;;5076760;28;20113;-79
2023/03/14 08:31:48;;;;;;;47.13;24.70;;;12.50;60.20;;;;;;5067102;28;20016;-77
2023/03/14 08:34:15;;;;;;;61.97;32.03;;;12.50;59.70;;;;;;5054830;28;20384;-78
2023/03/14 08:36:41;;;;;;;55.30;29.83;;;12.80;60.60;;;;;;5054647;28;20108;-76
2023/03/14 08:39:07;;;;;;;55.08;31.67;;;12.90;58.90;;;;;;5054794;28;20196;-80
2023/03/14 08:41:33;;;;;;;59.22;26.33;;;13.10;58.60;;;;;;5054739;28;20021;-79
2023/03/14 08:43:59;;;;;;;47.28;20.83;;;13.10;57.60;;;;;;5055838;28;20029;-79
2023/03/14 08:46:24;;;;;;;44.55;21.42;;;13.20;57.40;;;;;;5068544;28;20528;-78
2023/03/14 08:48:50;;;;;;;46.45;23.60;;;13.60;57.90;;;;;;5073861;28;20031;-79
2023/03/14 08:51:16;;;;;;;52.22;25.27;;;13.80;57.00;;;;;;5062109;28;20384;-82
2023/03/14 08:53:42;;;;;;;40.13;20.25;;;14.00;56.10;;;;;;5056196;28;20025;-80
2023/03/14 08:56:09;;;;;;;49.90;22.38;;;14.20;55.20;;;;;;5056226;28;20067;-78
2023/03/14 08:58:37;;;;;;;187.30;85.68;;;14.50;55.60;;;;;;5056192;28;20443;-79
2023/03/14 09:01:05;;;;;;;60.13;27.00;;;14.70;54.80;;;;;;5054483;28;20017;-80
2023/03/14 09:03:30;;;;;;;86.68;46.95;;;14.80;54.70;;;;;;5059024;28;20108;-80
2023/03/14 09:06:01;;;;;;;57.55;31.25;;;14.80;54.70;;;;;;5060931;28;20104;-78
2023/03/14 09:08:26;;;;;;;87.72;47.28;;;15.00;55.20;;;;;;5057544;28;20021;-79
2023/03/14 09:10:52;;;;;;;66.90;33.20;;;14.90;53.10;;;;;;5055959;28;20032;-78
2023/03/14 09:13:17;;;;;;;29.85;17.77;;;15.00;53.70;;;;;;5054154;28;20049;-78
2023/03/14 09:15:43;;;;;;;36.40;17.83;;;15.10;53.10;;;;;;5054262;28;20056;-79
2023/03/14 09:18:09;;;;;;;33.13;14.93;;;15.30;53.00;;;;;;5054577;28;20017;-79
2023/03/14 09:20:34;;;;;;;35.28;15.50;;;15.30;52.50;;;;;;5054549;28;20024;-77
2023/03/14 09:23:00;;;;;;;55.13;23.55;;;15.50;53.10;;;;;;5054214;28;20489;-79
2023/03/14 09:25:26;;;;;;;173.38;55.63;;;15.80;53.60;;;;;;5054520;28;20029;-79
2023/03/14 09:30:11;;;;;;;95.13;35.15;;;16.60;52.30;;;;;;5070590;28;20795;-78
2023/03/14 09:32:37;;;;;;;68.43;25.90;;;16.70;50.40;;;;;;5069981;28;20029;-76
2023/03/14 09:35:03;;;;;;;71.70;28.38;;;17.00;50.90;;;;;;5070786;28;20021;-77
2023/03/14 09:37:29;;;;;;;67.13;28.75;;;17.30;49.50;;;;;;5069530;28;20025;-77
2023/03/14 09:39:55;;;;;;;59.67;24.58;;;17.60;48.50;;;;;;5070824;28;20447;-78
2023/03/14 09:42:25;;;;;;;55.25;22.73;;;18.10;48.30;;;;;;5069765;28;20031;-78
2023/03/14 09:44:57;;;;;;;42.58;19.35;;;18.30;48.00;;;;;;5070788;28;20047;-77
2023/03/14 09:47:24;;;;;;;47.47;19.27;;;18.60;45.80;;;;;;5070968;28;20056;-78
2023/03/14 09:49:50;;;;;;;34.35;17.35;;;19.10;47.00;;;;;;5070561;28;20035;-78
2023/03/14 09:52:34;;;;;;;46.13;20.40;;;19.50;44.50;;;;;;5069613;28;20468;-78
2023/03/14 09:55:04;;;;;;;37.08;17.00;;;19.60;42.30;;;;;;5070657;28;20078;-78
2023/03/14 09:57:33;;;;;;;92.18;36.38;;;19.90;42.80;;;;;;5069150;28;20459;-78
2023/03/14 10:00:13;;;;;;;68.45;28.10;;;20.00;40.10;;;;;;5069602;28;20119;-79
2023/03/14 10:02:39;;;;;;;124.93;55.58;;;20.00;40.20;;;;;;5069386;28;20028;-80
2023/03/14 10:05:16;;;;;;;129.27;50.80;;;20.00;40.60;;;;;;5070333;28;20017;-80
2023/03/14 10:07:42;;;;;;;113.95;43.70;;;20.40;42.10;;;;;;5069612;28;20017;-79
2023/03/14 10:10:21;;;;;;;135.10;48.67;;;20.70;41.50;;;;;;5068656;28;20420;-78
2023/03/14 10:13:09;;;;;;;146.43;58.13;;;20.90;38.80;;;;;;5069412;28;20040;-78
2023/03/14 10:15:36;;;;;;;175.20;66.18;;;20.70;38.50;;;;;;5065157;28;20020;-79
2023/03/14 10:18:09;;;;;;;129.55;47.65;;;20.40;38.00;;;;;;5075620;28;20032;-79
2023/03/14 10:20:38;;;;;;;237.95;85.75;;;20.30;39.20;;;;;;5073601;28;20102;-76
2023/03/14 10:23:17;;;;;;;318.23;128.38;;;20.10;38.90;;;;;;5068830;28;20017;-78
2023/03/14 10:25:46;;;;;;;83.60;35.75;;;20.60;40.10;;;;;;5068689;28;20116;-78
2023/03/14 10:28:27;;;;;;;124.00;52.58;;;20.80;37.60;;;;;;5069717;28;20045;-79
2023/03/14 10:30:54;;;;;;;86.95;43.25;;;20.70;37.60;;;;;;5070325;28;20025;-78
2023/03/14 10:33:32;;;;;;;43.60;20.90;;;20.50;37.80;;;;;;5069257;28;20769;-78
2023/03/14 10:36:07;;;;;;;43.70;26.30;;;20.10;38.30;;;;;;5068465;28;20025;-79
2023/03/14 10:38:37;;;;;;;26.67;14.23;;;20.00;39.80;;;;;;5068672;28;20518;-77
2023/03/14 10:41:19;;;;;;;31.02;17.55;;;20.00;39.20;;;;;;5058828;28;20513;-77
2023/03/14 10:43:45;;;;;;;20.73;10.95;;;20.10;39.70;;;;;;5056390;28;20013;-77
2023/03/14 10:46:19;;;;;;;36.33;17.70;;;19.90;39.50;;;;;;5054364;28;20379;-78
2023/03/14 10:48:46;;;;;;;20.63;9.48;;;19.80;40.20;;;;;;5055529;28;20028;-79
2023/03/14 10:51:17;;;;;;;24.45;12.70;;;19.60;39.80;;;;;;5056024;28;20017;-80
2023/03/14 10:53:49;;;;;;;45.92;20.60;;;19.80;40.60;;;;;;5054187;28;20072;-78
2023/03/14 10:56:20;;;;;;;43.97;18.95;;;19.80;39.40;;;;;;5055772;28;20456;-77
2023/03/14 10:58:49;;;;;;;67.22;25.45;;;19.70;39.30;;;;;;5055963;28;20032;-78
2023/03/14 11:01:26;;;;;;;45.40;19.08;;;19.60;39.90;;;;;;5055033;28;20108;-78
2023/03/14 11:04:03;;;;;;;25.58;10.98;;;19.50;41.20;;;;;;5055143;28;20418;-78
2023/03/14 11:06:48;;;;;;;22.08;10.80;;;19.60;40.70;;;;;;5054057;28;20051;-78
2023/03/14 11:09:32;;;;;;;19.33;8.43;;;20.50;41.30;;;;;;5053349;28;20519;-78
2023/03/14 11:12:23;;;;;;;15.80;8.85;;;20.70;38.60;;;;;;5056668;28;20486;-79
2023/03/14 11:14:59;;;;;;;16.93;7.20;;;21.00;39.00;;;;;;5004255;28;20144;-81
2023/03/14 11:17:53;;;;;;;25.90;9.07;;;21.10;37.50;;;;;;5035886;28;20021;-78
2023/03/14 11:20:52;;;;;;;24.13;10.65;;;21.30;37.90;;;;;;5055309;28;20025;-79
2023/03/14 11:23:23;;;;;;;37.00;16.45;;;21.30;36.30;;;;;;5057014;28;20020;-78
2023/03/14 11:26:24;;;;;;;49.10;22.17;;;21.00;36.50;;;;;;5063067;28;20102;-78
2023/03/14 11:29:02;;;;;;;35.10;14.60;;;20.70;36.90;;;;;;5057472;28;20044;-80
2023/03/14 11:31:31;;;;;;;24.30;11.52;;;20.80;38.40;;;;;;5075522;28;20020;-81
2023/03/14 11:34:10;;;;;;;24.38;11.15;;;20.70;38.90;;;;;;5054983;28;20017;-78
2023/03/14 11:36:41;;;;;;;28.35;13.10;;;20.70;39.20;;;;;;5065227;28;20039;-80
2023/03/14 11:39:17;;;;;;;16.58;8.55;;;20.60;39.00;;;;;;5054970;28;20029;-77
2023/03/14 11:41:47;;;;;;;12.65;5.75;;;20.50;38.70;;;;;;5087472;28;20504;-79
2023/03/14 11:44:22;;;;;;;38.83;18.23;;;20.40;39.00;;;;;;5054599;28;20410;-81
2023/03/14 11:46:59;;;;;;;19.27;7.90;;;20.40;38.60;;;;;;5047866;28;20021;-78
2023/03/14 11:49:28;;;;;;;15.98;7.35;;;20.10;38.50;;;;;;5053207;28;20053;-77
2023/03/14 11:51:59;;;;;;;13.65;7.18;;;20.20;39.80;;;;;;5052224;28;20115;-77
2023/03/14 11:54:38;;;;;;;18.50;8.47;;;20.30;39.20;;;;;;5064712;28;20044;-76
2023/03/14 11:57:11;;;;;;;15.02;7.72;;;20.30;40.10;;;;;;5053890;28;20459;-77
2023/03/14 11:59:52;;;;;;;21.25;7.88;;;20.30;39.60;;;;;;5054886;28;20029;-78
2023/03/14 12:02:40;;;;;;;18.80;7.32;;;20.40;40.30;;;;;;5054995;28;20047;-78
2023/03/14 12:05:31;;;;;;;28.83;12.82;;;20.80;39.10;;;;;;5053482;28;20029;-78
2023/03/14 12:08:09;;;;;;;21.88;9.35;;;20.70;37.70;;;;;;5055011;28;20025;-78
2023/03/14 12:10:52;;;;;;;15.45;8.10;;;20.70;39.20;;;;;;5054405;28;20029;-75
2023/03/14 12:13:19;;;;;;;20.02;7.13;;;20.70;38.70;;;;;;5054987;28;20017;-77
2023/03/14 12:15:59;;;;;;;14.48;6.68;;;20.70;38.60;;;;;;5054914;28;20435;-76
2023/03/14 12:18:34;;;;;;;16.30;8.07;;;20.50;37.70;;;;;;5053255;28;20024;-78
2023/03/14 12:21:06;;;;;;;14.15;6.68;;;20.30;37.70;;;;;;5054987;28;20017;-78
2023/03/14 12:23:52;;;;;;;20.55;7.03;;;20.30;39.10;;;;;;5053471;28;20356;-77
2023/03/14 12:26:26;;;;;;;18.00;10.15;;;20.20;39.30;;;;;;5054357;28;20021;-76
2023/03/14 12:29:19;;;;;;;15.68;6.65;;;20.20;41.10;;;;;;5054603;28;20127;-77
2023/03/14 12:31:47;;;;;;;17.92;8.27;;;20.00;39.80;;;;;;5054392;28;20024;-77
2023/03/14 12:34:13;;;;;;;23.27;9.18;;;19.90;40.80;;;;;;5053353;28;20021;-76
2023/03/14 12:36:50;;;;;;;24.02;9.93;;;19.90;40.00;;;;;;5053260;28;20027;-77
2023/03/14 12:41:48;;;;;;;22.10;10.00;;;19.80;40.20;;;;;;5071225;28;20461;-77
2023/03/14 12:44:29;;;;;;;16.50;9.55;;;19.80;41.90;;;;;;5070776;28;20017;-76
2023/03/14 12:47:21;;;;;;;21.55;9.20;;;19.80;42.00;;;;;;5069641;28;20348;-77